sensor_id;sensor_type;location;lat;lon;timestamp;pressure;altitude;pressure_sealevel;temperature;humidity
76730;BME280;65653;53.106;18.046;2023-06-22T00:00:54;101047.99;;;19.75;79.22
76730;BME280;65653;53.106;18.046;2023-06-22T00:03:30;101051.80;;;19.76;79.29
76730;BME280;65653;53.106;18.046;2023-06-22T00:05:57;101056.77;;;19.78;79.14
76730;BME280;65653;53.106;18.046;2023-06-22T00:08:23;101056.52;;;19.81;78.74
76730;BME280;65653;53.106;18.046;2023-06-22T00:10:50;101063.90;;;19.85;77.89
76730;BME280;65653;53.106;18.046;2023-06-22T00:13:17;101067.84;;;19.88;77.81
76730;BME280;65653;53.106;18.046;2023-06-22T00:15:44;101072.54;;;19.90;78.02
76730;BME280;65653;53.106;18.046;2023-06-22T00:18:11;101072.50;;;19.91;77.93
76730;BME280;65653;53.106;18.046;2023-06-22T00:20:41;101070.83;;;19.89;78.46
76730;BME280;65653;53.106;18.046;2023-06-22T00:23:08;101075.77;;;19.86;78.57
76730;BME280;65653;53.106;18.046;2023-06-22T00:25:38;101076.88;;;19.80;78.81
76730;BME280;65653;53.106;18.046;2023-06-22T00:28:08;101072.89;;;19.74;79.23
76730;BME280;65653;53.106;18.046;2023-06-22T00:30:35;101071.40;;;19.68;79.41
76730;BME280;65653;53.106;18.046;2023-06-22T00:33:01;101078.32;;;19.65;79.69
76730;BME280;65653;53.106;18.046;2023-06-22T00:35:28;101081.02;;;19.62;80.05
76730;BME280;65653;53.106;18.046;2023-06-22T00:38:00;101081.55;;;19.60;80.24
76730;BME280;65653;53.106;18.046;2023-06-22T00:40:32;101082.23;;;19.58;80.45
76730;BME280;65653;53.106;18.046;2023-06-22T00:42:59;101083.65;;;19.58;80.35
76730;BME280;65653;53.106;18.046;2023-06-22T00:45:26;101087.65;;;19.59;80.62
76730;BME280;65653;53.106;18.046;2023-06-22T00:47:54;101091.41;;;19.58;80.43
76730;BME280;65653;53.106;18.046;2023-06-22T00:50:23;101093.95;;;19.59;80.54
76730;BME280;65653;53.106;18.046;2023-06-22T00:52:58;101087.70;;;19.58;80.76
76730;BME280;65653;53.106;18.046;2023-06-22T00:55:26;101088.36;;;19.58;80.65
76730;BME280;65653;53.106;18.046;2023-06-22T00:57:53;101089.21;;;19.58;80.24
76730;BME280;65653;53.106;18.046;2023-06-22T01:00:23;101083.48;;;19.58;80.25
76730;BME280;65653;53.106;18.046;2023-06-22T01:02:52;101086.22;;;19.57;80.02
76730;BME280;65653;53.106;18.046;2023-06-22T01:05:22;101086.91;;;19.55;80.07
76730;BME280;65653;53.106;18.046;2023-06-22T01:08:04;101083.41;;;19.51;80.09
76730;BME280;65653;53.106;18.046;2023-06-22T01:10:55;101089.93;;;19.47;80.41
76730;BME280;65653;53.106;18.046;2023-06-22T01:16:35;101091.98;;;19.37;80.66
76730;BME280;65653;53.106;18.046;2023-06-22T01:19:15;101095.02;;;19.32;80.87
76730;BME280;65653;53.106;18.046;2023-06-22T01:21:45;101092.66;;;19.27;80.72
76730;BME280;65653;53.106;18.046;2023-06-22T01:24:22;101095.55;;;19.22;80.77
76730;BME280;65653;53.106;18.046;2023-06-22T01:29:32;101096.90;;;19.10;80.91
76730;BME280;65653;53.106;18.046;2023-06-22T01:32:00;101099.53;;;19.04;81.03
76730;BME280;65653;53.106;18.046;2023-06-22T01:34:31;101092.96;;;18.97;81.18
76730;BME280;65653;53.106;18.046;2023-06-22T01:36:59;101096.02;;;18.91;81.37
76730;BME280;65653;53.106;18.046;2023-06-22T01:39:28;101097.52;;;18.85;81.56
76730;BME280;65653;53.106;18.046;2023-06-22T01:41:56;101096.60;;;18.78;81.65
76730;BME280;65653;53.106;18.046;2023-06-22T01:44:24;101095.73;;;18.71;81.74
76730;BME280;65653;53.106;18.046;2023-06-22T01:46:52;101095.16;;;18.65;81.66
76730;BME280;65653;53.106;18.046;2023-06-22T01:49:19;101090.98;;;18.61;81.48
76730;BME280;65653;53.106;18.046;2023-06-22T01:51:46;101094.94;;;18.57;81.46
76730;BME280;65653;53.106;18.046;2023-06-22T01:54:13;101092.33;;;18.53;81.19
76730;BME280;65653;53.106;18.046;2023-06-22T01:56:39;101092.94;;;18.51;81.31
76730;BME280;65653;53.106;18.046;2023-06-22T01:59:20;101094.84;;;18.45;81.36
76730;BME280;65653;53.106;18.046;2023-06-22T02:02:05;101096.86;;;18.41;81.36
76730;BME280;65653;53.106;18.046;2023-06-22T02:04:46;101098.02;;;18.36;81.42
76730;BME280;65653;53.106;18.046;2023-06-22T02:07:15;101092.77;;;18.32;81.48
76730;BME280;65653;53.106;18.046;2023-06-22T02:09:45;101097.23;;;18.28;81.30
76730;BME280;65653;53.106;18.046;2023-06-22T02:12:13;101095.70;;;18.27;80.68
76730;BME280;65653;53.106;18.046;2023-06-22T02:14:44;101098.70;;;18.26;80.64
76730;BME280;65653;53.106;18.046;2023-06-22T02:17:12;101096.84;;;18.23;80.67
76730;BME280;65653;53.106;18.046;2023-06-22T02:19:43;101097.98;;;18.19;80.83
76730;BME280;65653;53.106;18.046;2023-06-22T02:22:09;101099.69;;;18.15;80.93
76730;BME280;65653;53.106;18.046;2023-06-22T02:24:36;101105.95;;;18.13;81.15
76730;BME280;65653;53.106;18.046;2023-06-22T02:27:02;101108.71;;;18.11;81.53
76730;BME280;65653;53.106;18.046;2023-06-22T02:29:29;101118.90;;;18.12;81.59
76730;BME280;65653;53.106;18.046;2023-06-22T02:31:56;101124.26;;;18.10;82.13
76730;BME280;65653;53.106;18.046;2023-06-22T02:34:22;101122.30;;;18.09;82.51
76730;BME280;65653;53.106;18.046;2023-06-22T02:36:49;101124.41;;;18.07;82.72
76730;BME280;65653;53.106;18.046;2023-06-22T02:39:24;101127.17;;;18.04;82.59
76730;BME280;65653;53.106;18.046;2023-06-22T02:41:52;101123.16;;;18.02;82.34
76730;BME280;65653;53.106;18.046;2023-06-22T02:44:19;101128.39;;;17.99;82.36
76730;BME280;65653;53.106;18.046;2023-06-22T02:46:47;101123.32;;;17.96;82.21
76730;BME280;65653;53.106;18.046;2023-06-22T02:49:14;101123.66;;;17.93;82.07
76730;BME280;65653;53.106;18.046;2023-06-22T02:51:44;101121.41;;;17.91;82.15
76730;BME280;65653;53.106;18.046;2023-06-22T02:54:11;101124.52;;;17.89;81.59
76730;BME280;65653;53.106;18.046;2023-06-22T02:56:38;101127.86;;;17.88;81.35
76730;BME280;65653;53.106;18.046;2023-06-22T02:59:07;101128.04;;;17.87;81.22
76730;BME280;65653;53.106;18.046;2023-06-22T03:01:33;101123.73;;;17.85;81.20
76730;BME280;65653;53.106;18.046;2023-06-22T03:04:07;101128.30;;;17.83;81.31
76730;BME280;65653;53.106;18.046;2023-06-22T03:06:33;101131.96;;;17.82;81.12
76730;BME280;65653;53.106;18.046;2023-06-22T03:09:03;101135.48;;;17.82;81.08
76730;BME280;65653;53.106;18.046;2023-06-22T03:11:31;101140.25;;;17.82;80.97
76730;BME280;65653;53.106;18.046;2023-06-22T03:13:59;101142.66;;;17.82;81.02
76730;BME280;65653;53.106;18.046;2023-06-22T03:16:25;101145.00;;;17.84;80.74
76730;BME280;65653;53.106;18.046;2023-06-22T03:18:52;101146.45;;;17.85;80.63
76730;BME280;65653;53.106;18.046;2023-06-22T03:21:23;101147.56;;;17.88;80.46
76730;BME280;65653;53.106;18.046;2023-06-22T03:23:50;101152.29;;;17.91;80.09
76730;BME280;65653;53.106;18.046;2023-06-22T03:26:17;101154.16;;;17.96;79.73
76730;BME280;65653;53.106;18.046;2023-06-22T03:28:44;101156.90;;;18.03;79.49
76730;BME280;65653;53.106;18.046;2023-06-22T03:31:10;101154.77;;;18.11;79.34
76730;BME280;65653;53.106;18.046;2023-06-22T03:33:36;101154.91;;;18.13;79.07
76730;BME280;65653;53.106;18.046;2023-06-22T03:36:03;101156.52;;;18.12;79.42
76730;BME280;65653;53.106;18.046;2023-06-22T03:38:30;101162.13;;;18.10;79.67
76730;BME280;65653;53.106;18.046;2023-06-22T03:40:56;101163.55;;;18.08;79.56
76730;BME280;65653;53.106;18.046;2023-06-22T03:43:25;101167.77;;;18.08;79.58
76730;BME280;65653;53.106;18.046;2023-06-22T03:45:52;101170.65;;;18.08;79.73
76730;BME280;65653;53.106;18.046;2023-06-22T03:48:18;101172.50;;;18.09;79.54
76730;BME280;65653;53.106;18.046;2023-06-22T03:50:45;101181.14;;;18.10;79.61
76730;BME280;65653;53.106;18.046;2023-06-22T03:53:11;101185.60;;;18.09;79.50
76730;BME280;65653;53.106;18.046;2023-06-22T03:55:47;101191.36;;;18.08;79.46
76730;BME280;65653;53.106;18.046;2023-06-22T03:58:14;101184.46;;;18.10;79.43
76730;BME280;65653;53.106;18.046;2023-06-22T04:00:41;101180.80;;;18.10;79.48
76730;BME280;65653;53.106;18.046;2023-06-22T04:03:07;101177.98;;;18.09;79.51
76730;BME280;65653;53.106;18.046;2023-06-22T04:05:34;101182.03;;;18.07;79.55
76730;BME280;65653;53.106;18.046;2023-06-22T04:08:00;101181.36;;;18.07;79.54
76730;BME280;65653;53.106;18.046;2023-06-22T04:10:27;101181.52;;;18.11;79.50
76730;BME280;65653;53.106;18.046;2023-06-22T04:12:53;101188.14;;;18.14;79.28
76730;BME280;65653;53.106;18.046;2023-06-22T04:15:20;101188.56;;;18.17;79.10
76730;BME280;65653;53.106;18.046;2023-06-22T04:17:46;101186.69;;;18.21;79.14
76730;BME280;65653;53.106;18.046;2023-06-22T04:20:13;101186.53;;;18.22;79.12
76730;BME280;65653;53.106;18.046;2023-06-22T04:22:39;101189.08;;;18.29;78.93
76730;BME280;65653;53.106;18.046;2023-06-22T04:25:06;101190.19;;;18.36;78.42
76730;BME280;65653;53.106;18.046;2023-06-22T04:27:34;101189.94;;;18.50;77.87
76730;BME280;65653;53.106;18.046;2023-06-22T04:30:07;101187.14;;;18.68;76.89
76730;BME280;65653;53.106;18.046;2023-06-22T04:32:34;101186.73;;;18.67;77.18
76730;BME280;65653;53.106;18.046;2023-06-22T04:35:04;101182.00;;;18.66;77.05
76730;BME280;65653;53.106;18.046;2023-06-22T04:37:31;101183.14;;;18.65;76.87
76730;BME280;65653;53.106;18.046;2023-06-22T04:39:57;101183.73;;;18.66;76.99
76730;BME280;65653;53.106;18.046;2023-06-22T04:42:27;101185.55;;;18.66;76.85
76730;BME280;65653;53.106;18.046;2023-06-22T04:44:54;101184.42;;;18.70;76.83
76730;BME280;65653;53.106;18.046;2023-06-22T04:47:20;101180.61;;;18.75;76.53
76730;BME280;65653;53.106;18.046;2023-06-22T04:49:47;101183.02;;;18.87;76.52
76730;BME280;65653;53.106;18.046;2023-06-22T04:52:13;101190.29;;;19.12;75.62
76730;BME280;65653;53.106;18.046;2023-06-22T04:54:46;101190.35;;;19.32;74.84
76730;BME280;65653;53.106;18.046;2023-06-22T04:57:21;101193.30;;;19.30;74.79
76730;BME280;65653;53.106;18.046;2023-06-22T04:59:56;101194.92;;;19.28;74.80
76730;BME280;65653;53.106;18.046;2023-06-22T05:02:23;101199.47;;;19.31;74.80
76730;BME280;65653;53.106;18.046;2023-06-22T05:05:01;101201.38;;;19.35;74.66
76730;BME280;65653;53.106;18.046;2023-06-22T05:07:34;101200.23;;;19.34;74.42
76730;BME280;65653;53.106;18.046;2023-06-22T05:10:01;101202.69;;;19.28;74.44
76730;BME280;65653;53.106;18.046;2023-06-22T05:12:30;101202.61;;;19.27;74.78
76730;BME280;65653;53.106;18.046;2023-06-22T05:14:57;101210.52;;;19.37;75.05
76730;BME280;65653;53.106;18.046;2023-06-22T05:17:24;101213.02;;;19.43;74.07
76730;BME280;65653;53.106;18.046;2023-06-22T05:19:51;101220.90;;;19.41;74.04
76730;BME280;65653;53.106;18.046;2023-06-22T05:22:18;101215.83;;;19.40;74.42
76730;BME280;65653;53.106;18.046;2023-06-22T05:24:44;101214.11;;;19.50;73.92
76730;BME280;65653;53.106;18.046;2023-06-22T05:27:10;101219.98;;;19.59;73.92
76730;BME280;65653;53.106;18.046;2023-06-22T05:29:37;101222.83;;;19.68;73.54
76730;BME280;65653;53.106;18.046;2023-06-22T05:32:04;101224.04;;;19.75;73.36
76730;BME280;65653;53.106;18.046;2023-06-22T05:34:31;101227.39;;;19.90;73.01
76730;BME280;65653;53.106;18.046;2023-06-22T05:36:58;101231.75;;;19.98;72.07
76730;BME280;65653;53.106;18.046;2023-06-22T05:39:27;101232.80;;;19.99;71.61
76730;BME280;65653;53.106;18.046;2023-06-22T05:41:54;101231.09;;;20.02;71.96
76730;BME280;65653;53.106;18.046;2023-06-22T05:44:21;101230.01;;;20.11;71.97
76730;BME280;65653;53.106;18.046;2023-06-22T05:46:47;101231.38;;;20.15;71.01
76730;BME280;65653;53.106;18.046;2023-06-22T05:49:14;101231.70;;;20.18;70.81
76730;BME280;65653;53.106;18.046;2023-06-22T05:51:43;101219.28;;;20.24;70.46
76730;BME280;65653;53.106;18.046;2023-06-22T05:54:09;101217.51;;;20.32;70.34
76730;BME280;65653;53.106;18.046;2023-06-22T05:56:36;101219.48;;;20.36;69.88
76730;BME280;65653;53.106;18.046;2023-06-22T05:59:03;101215.02;;;20.35;69.81
76730;BME280;65653;53.106;18.046;2023-06-22T06:01:30;101215.10;;;20.36;69.74
76730;BME280;65653;53.106;18.046;2023-06-22T06:04:03;101209.29;;;20.42;69.06
76730;BME280;65653;53.106;18.046;2023-06-22T06:06:36;101211.08;;;20.44;69.11
76730;BME280;65653;53.106;18.046;2023-06-22T06:09:04;101214.23;;;20.57;68.96
76730;BME280;65653;53.106;18.046;2023-06-22T06:11:31;101215.83;;;20.65;68.42
76730;BME280;65653;53.106;18.046;2023-06-22T06:13:58;101213.27;;;20.67;67.90
76730;BME280;65653;53.106;18.046;2023-06-22T06:16:25;101215.27;;;20.65;67.40
76730;BME280;65653;53.106;18.046;2023-06-22T06:18:52;101208.98;;;20.70;67.61
76730;BME280;65653;53.106;18.046;2023-06-22T06:21:22;101205.61;;;20.80;67.84
76730;BME280;65653;53.106;18.046;2023-06-22T06:23:48;101209.52;;;20.90;66.85
76730;BME280;65653;53.106;18.046;2023-06-22T06:26:14;101209.56;;;20.92;66.61
76730;BME280;65653;53.106;18.046;2023-06-22T06:28:43;101217.50;;;20.92;66.36
76730;BME280;65653;53.106;18.046;2023-06-22T06:31:10;101222.12;;;20.96;66.07
76730;BME280;65653;53.106;18.046;2023-06-22T06:33:38;101227.45;;;21.02;65.08
76730;BME280;65653;53.106;18.046;2023-06-22T06:36:05;101229.15;;;21.09;63.86
76730;BME280;65653;53.106;18.046;2023-06-22T06:38:31;101227.61;;;21.16;63.53
76730;BME280;65653;53.106;18.046;2023-06-22T06:40:58;101222.20;;;21.25;63.23
76730;BME280;65653;53.106;18.046;2023-06-22T06:43:25;101217.50;;;21.25;62.53
76730;BME280;65653;53.106;18.046;2023-06-22T06:45:52;101214.65;;;21.40;63.16
76730;BME280;65653;53.106;18.046;2023-06-22T06:48:19;101212.19;;;21.62;62.99
76730;BME280;65653;53.106;18.046;2023-06-22T06:50:45;101213.21;;;21.74;62.27
76730;BME280;65653;53.106;18.046;2023-06-22T06:53:12;101213.20;;;21.86;61.31
76730;BME280;65653;53.106;18.046;2023-06-22T06:55:39;101209.45;;;21.89;60.64
76730;BME280;65653;53.106;18.046;2023-06-22T06:58:05;101207.63;;;21.93;60.42
76730;BME280;65653;53.106;18.046;2023-06-22T07:00:34;101205.20;;;21.99;60.45
76730;BME280;65653;53.106;18.046;2023-06-22T07:03:02;101210.54;;;22.10;60.24
76730;BME280;65653;53.106;18.046;2023-06-22T07:05:28;101216.98;;;22.22;60.07
76730;BME280;65653;53.106;18.046;2023-06-22T07:07:55;101217.16;;;22.26;59.99
76730;BME280;65653;53.106;18.046;2023-06-22T07:10:21;101208.84;;;22.32;58.89
76730;BME280;65653;53.106;18.046;2023-06-22T07:12:48;101210.34;;;22.33;59.04
76730;BME280;65653;53.106;18.046;2023-06-22T07:15:15;101213.61;;;22.34;58.24
76730;BME280;65653;53.106;18.046;2023-06-22T07:17:42;101206.48;;;22.31;57.04
76730;BME280;65653;53.106;18.046;2023-06-22T07:20:09;101213.42;;;22.30;57.01
76730;BME280;65653;53.106;18.046;2023-06-22T07:22:39;101221.10;;;22.39;57.77
76730;BME280;65653;53.106;18.046;2023-06-22T07:25:07;101219.84;;;22.51;57.80
76730;BME280;65653;53.106;18.046;2023-06-22T07:28:06;101218.96;;;22.60;57.08
76730;BME280;65653;53.106;18.046;2023-06-22T07:30:33;101221.58;;;22.69;55.65
76730;BME280;65653;53.106;18.046;2023-06-22T07:33:00;101228.14;;;22.79;54.93
76730;BME280;65653;53.106;18.046;2023-06-22T07:35:30;101227.05;;;22.87;55.13
76730;BME280;65653;53.106;18.046;2023-06-22T07:37:57;101227.21;;;23.05;55.98
76730;BME280;65653;53.106;18.046;2023-06-22T07:40:24;101230.59;;;23.04;55.84
76730;BME280;65653;53.106;18.046;2023-06-22T07:42:50;101235.33;;;23.02;56.30
76730;BME280;65653;53.106;18.046;2023-06-22T07:45:18;101239.31;;;23.18;56.58
76730;BME280;65653;53.106;18.046;2023-06-22T07:47:45;101241.04;;;23.25;54.42
76730;BME280;65653;53.106;18.046;2023-06-22T07:50:11;101237.07;;;23.22;54.88
76730;BME280;65653;53.106;18.046;2023-06-22T07:52:38;101233.56;;;23.32;55.68
76730;BME280;65653;53.106;18.046;2023-06-22T07:55:04;101236.17;;;23.45;54.17
76730;BME280;65653;53.106;18.046;2023-06-22T07:57:31;101229.77;;;23.35;53.48
76730;BME280;65653;53.106;18.046;2023-06-22T08:00:03;101230.73;;;23.39;54.05
76730;BME280;65653;53.106;18.046;2023-06-22T08:02:35;101227.64;;;23.26;52.81
76730;BME280;65653;53.106;18.046;2023-06-22T08:05:01;101233.59;;;23.28;53.16
76730;BME280;65653;53.106;18.046;2023-06-22T08:07:28;101244.50;;;23.54;53.55
76730;BME280;65653;53.106;18.046;2023-06-22T08:09:54;101243.34;;;23.60;52.54
76730;BME280;65653;53.106;18.046;2023-06-22T08:12:21;101248.52;;;23.67;52.95
76730;BME280;65653;53.106;18.046;2023-06-22T08:14:48;101247.53;;;23.88;53.32
76730;BME280;65653;53.106;18.046;2023-06-22T08:17:14;101247.95;;;24.09;52.57
76730;BME280;65653;53.106;18.046;2023-06-22T08:19:41;101248.12;;;24.08;51.26
76730;BME280;65653;53.106;18.046;2023-06-22T08:22:08;101253.55;;;24.09;50.34
76730;BME280;65653;53.106;18.046;2023-06-22T08:24:35;101255.02;;;24.00;49.21
76730;BME280;65653;53.106;18.046;2023-06-22T08:27:01;101251.21;;;23.87;49.87
76730;BME280;65653;53.106;18.046;2023-06-22T08:29:28;101247.30;;;24.08;50.77
76730;BME280;65653;53.106;18.046;2023-06-22T08:31:55;101245.17;;;24.18;50.31
76730;BME280;65653;53.106;18.046;2023-06-22T08:34:21;101249.20;;;24.19;50.17
76730;BME280;65653;53.106;18.046;2023-06-22T08:36:49;101248.23;;;24.35;50.65
76730;BME280;65653;53.106;18.046;2023-06-22T08:39:19;101245.40;;;24.42;49.37
76730;BME280;65653;53.106;18.046;2023-06-22T08:41:47;101250.94;;;24.49;49.04
76730;BME280;65653;53.106;18.046;2023-06-22T08:44:17;101248.63;;;24.50;49.15
76730;BME280;65653;53.106;18.046;2023-06-22T08:46:45;101238.98;;;24.62;48.89
76730;BME280;65653;53.106;18.046;2023-06-22T08:49:11;101240.73;;;24.74;47.33
76730;BME280;65653;53.106;18.046;2023-06-22T08:51:38;101237.41;;;24.95;46.65
76730;BME280;65653;53.106;18.046;2023-06-22T08:54:05;101239.48;;;25.89;46.59
76730;BME280;65653;53.106;18.046;2023-06-22T08:56:32;101239.27;;;27.26;45.57
76730;BME280;65653;53.106;18.046;2023-06-22T08:58:58;101232.38;;;28.51;43.38
76730;BME280;65653;53.106;18.046;2023-06-22T09:01:28;101224.95;;;29.44;40.25
76730;BME280;65653;53.106;18.046;2023-06-22T09:03:54;101230.77;;;29.98;40.18
76730;BME280;65653;53.106;18.046;2023-06-22T09:06:22;101228.20;;;30.51;37.95
76730;BME280;65653;53.106;18.046;2023-06-22T09:08:49;101226.08;;;30.81;36.67
76730;BME280;65653;53.106;18.046;2023-06-22T09:11:16;101226.34;;;31.27;36.88
76730;BME280;65653;53.106;18.046;2023-06-22T09:13:42;101226.08;;;31.83;36.99
76730;BME280;65653;53.106;18.046;2023-06-22T09:16:09;101227.20;;;32.36;33.85
76730;BME280;65653;53.106;18.046;2023-06-22T09:18:35;101219.07;;;32.48;32.06
76730;BME280;65653;53.106;18.046;2023-06-22T09:21:02;101216.16;;;32.58;30.84
76730;BME280;65653;53.106;18.046;2023-06-22T09:23:29;101200.69;;;32.28;30.70
76730;BME280;65653;53.106;18.046;2023-06-22T09:25:56;101207.58;;;32.65;30.72
76730;BME280;65653;53.106;18.046;2023-06-22T09:28:23;101202.80;;;32.74;29.80
76730;BME280;65653;53.106;18.046;2023-06-22T09:30:50;101205.61;;;32.80;28.92
76730;BME280;65653;53.106;18.046;2023-06-22T09:33:16;101188.58;;;32.59;28.66
76730;BME280;65653;53.106;18.046;2023-06-22T09:35:45;101199.58;;;32.97;28.51
76730;BME280;65653;53.106;18.046;2023-06-22T09:38:12;101187.70;;;33.36;27.30
76730;BME280;65653;53.106;18.046;2023-06-22T09:40:38;101192.01;;;33.61;26.78
76730;BME280;65653;53.106;18.046;2023-06-22T09:43:06;101191.61;;;33.38;26.24
76730;BME280;65653;53.106;18.046;2023-06-22T09:45:32;101194.21;;;33.17;25.94
76730;BME280;65653;53.106;18.046;2023-06-22T09:47:59;101193.12;;;33.48;26.34
76730;BME280;65653;53.106;18.046;2023-06-22T09:50:27;101192.23;;;33.78;25.45
76730;BME280;65653;53.106;18.046;2023-06-22T09:52:53;101196.14;;;33.85;25.07
76730;BME280;65653;53.106;18.046;2023-06-22T09:55:22;101189.88;;;34.09;25.15
76730;BME280;65653;53.106;18.046;2023-06-22T09:57:48;101187.83;;;34.45;24.64
76730;BME280;65653;53.106;18.046;2023-06-22T10:00:16;101191.48;;;34.69;24.32
76730;BME280;65653;53.106;18.046;2023-06-22T10:02:43;101191.20;;;34.96;24.70
76730;BME280;65653;53.106;18.046;2023-06-22T10:05:10;101195.06;;;35.69;25.32
76730;BME280;65653;53.106;18.046;2023-06-22T10:07:36;101196.27;;;36.46;24.84
76730;BME280;65653;53.106;18.046;2023-06-22T10:10:12;101197.36;;;37.10;23.76
76730;BME280;65653;53.106;18.046;2023-06-22T10:12:55;101187.20;;;37.46;22.78
76730;BME280;65653;53.106;18.046;2023-06-22T10:15:23;101182.36;;;37.71;23.09
76730;BME280;65653;53.106;18.046;2023-06-22T10:17:52;101180.29;;;38.20;22.42
76730;BME280;65653;53.106;18.046;2023-06-22T10:20:24;101182.94;;;38.70;22.67
76730;BME280;65653;53.106;18.046;2023-06-22T10:22:52;101181.33;;;38.84;20.47
76730;BME280;65653;53.106;18.046;2023-06-22T10:25:18;101173.56;;;38.68;19.88
76730;BME280;65653;53.106;18.046;2023-06-22T10:27:45;101171.59;;;38.77;20.24
76730;BME280;65653;53.106;18.046;2023-06-22T10:30:12;101173.48;;;38.98;20.69
76730;BME280;65653;53.106;18.046;2023-06-22T10:32:40;101173.94;;;39.51;20.96
76730;BME280;65653;53.106;18.046;2023-06-22T10:35:07;101172.98;;;39.73;19.73
76730;BME280;65653;53.106;18.046;2023-06-22T10:37:34;101172.95;;;39.88;20.14
76730;BME280;65653;53.106;18.046;2023-06-22T10:40:00;101179.32;;;40.33;20.32
76730;BME280;65653;53.106;18.046;2023-06-22T10:42:27;101177.11;;;40.52;20.13
76730;BME280;65653;53.106;18.046;2023-06-22T10:44:53;101172.98;;;40.77;19.27
76730;BME280;65653;53.106;18.046;2023-06-22T10:47:19;101168.13;;;40.81;20.12
76730;BME280;65653;53.106;18.046;2023-06-22T10:49:46;101166.63;;;40.46;18.36
76730;BME280;65653;53.106;18.046;2023-06-22T10:52:12;101163.27;;;40.15;18.51
76730;BME280;65653;53.106;18.046;2023-06-22T10:54:39;101164.65;;;40.52;19.53
76730;BME280;65653;53.106;18.046;2023-06-22T10:57:06;101158.27;;;40.95;18.32
76730;BME280;65653;53.106;18.046;2023-06-22T10:59:32;101156.46;;;40.98;18.42
76730;BME280;65653;53.106;18.046;2023-06-22T11:01:59;101154.58;;;41.02;19.05
76730;BME280;65653;53.106;18.046;2023-06-22T11:04:25;101155.90;;;40.71;18.63
76730;BME280;65653;53.106;18.046;2023-06-22T11:06:52;101153.80;;;40.74;19.67
76730;BME280;65653;53.106;18.046;2023-06-22T11:09:18;101150.66;;;41.35;19.23
76730;BME280;65653;53.106;18.046;2023-06-22T11:11:49;101143.23;;;41.63;18.50
76730;BME280;65653;53.106;18.046;2023-06-22T11:14:15;101151.23;;;42.01;18.35
76730;BME280;65653;53.106;18.046;2023-06-22T11:16:42;101157.89;;;41.45;18.05
76730;BME280;65653;53.106;18.046;2023-06-22T11:19:08;101158.91;;;40.47;18.36
76730;BME280;65653;53.106;18.046;2023-06-22T11:21:35;101160.02;;;40.14;17.94
76730;BME280;65653;53.106;18.046;2023-06-22T11:24:01;101155.58;;;40.32;17.84
76730;BME280;65653;53.106;18.046;2023-06-22T11:26:28;101154.88;;;39.72;18.58
76730;BME280;65653;53.106;18.046;2023-06-22T11:28:55;101146.83;;;39.50;18.89
76730;BME280;65653;53.106;18.046;2023-06-22T11:31:21;101144.92;;;39.82;18.23
76730;BME280;65653;53.106;18.046;2023-06-22T11:33:48;101148.48;;;40.27;18.67
76730;BME280;65653;53.106;18.046;2023-06-22T11:36:15;101153.61;;;40.89;18.32
76730;BME280;65653;53.106;18.046;2023-06-22T11:38:42;101155.77;;;41.39;17.30
76730;BME280;65653;53.106;18.046;2023-06-22T11:41:10;101154.39;;;41.43;16.59
76730;BME280;65653;53.106;18.046;2023-06-22T11:43:36;101153.87;;;41.23;16.95
76730;BME280;65653;53.106;18.046;2023-06-22T11:46:03;101155.54;;;40.82;17.72
76730;BME280;65653;53.106;18.046;2023-06-22T11:48:30;101150.48;;;41.24;17.90
76730;BME280;65653;53.106;18.046;2023-06-22T11:50:57;101142.84;;;41.78;17.36
76730;BME280;65653;53.106;18.046;2023-06-22T11:53:25;101141.61;;;42.07;17.25
76730;BME280;65653;53.106;18.046;2023-06-22T11:55:52;101136.13;;;42.74;17.62
76730;BME280;65653;53.106;18.046;2023-06-22T11:58:20;101138.63;;;42.74;15.43
76730;BME280;65653;53.106;18.046;2023-06-22T12:00:47;101136.69;;;42.21;15.96
76730;BME280;65653;53.106;18.046;2023-06-22T12:03:14;101136.02;;;41.88;15.73
76730;BME280;65653;53.106;18.046;2023-06-22T12:05:41;101129.98;;;41.95;15.67
76730;BME280;65653;53.106;18.046;2023-06-22T12:08:07;101131.71;;;41.55;16.11
76730;BME280;65653;53.106;18.046;2023-06-22T12:10:34;101122.14;;;41.90;16.32
76730;BME280;65653;53.106;18.046;2023-06-22T12:13:00;101119.61;;;42.60;16.07
76730;BME280;65653;53.106;18.046;2023-06-22T12:15:27;101116.30;;;43.13;16.15
76730;BME280;65653;53.106;18.046;2023-06-22T12:17:53;101113.02;;;43.60;15.92
76730;BME280;65653;53.106;18.046;2023-06-22T12:20:20;101102.21;;;43.87;15.30
76730;BME280;65653;53.106;18.046;2023-06-22T12:22:46;101098.30;;;43.84;15.23
76730;BME280;65653;53.106;18.046;2023-06-22T12:25:14;101104.25;;;44.02;15.31
76730;BME280;65653;53.106;18.046;2023-06-22T12:27:40;101109.61;;;43.09;15.28
76730;BME280;65653;53.106;18.046;2023-06-22T12:30:08;101105.20;;;43.15;16.45
76730;BME280;65653;53.106;18.046;2023-06-22T12:32:35;101099.53;;;43.53;14.98
76730;BME280;65653;53.106;18.046;2023-06-22T12:35:02;101095.13;;;43.43;15.27
76730;BME280;65653;53.106;18.046;2023-06-22T12:37:28;101092.84;;;43.58;14.06
76730;BME280;65653;53.106;18.046;2023-06-22T12:39:55;101092.88;;;43.43;14.73
76730;BME280;65653;53.106;18.046;2023-06-22T12:42:22;101090.27;;;43.48;15.24
76730;BME280;65653;53.106;18.046;2023-06-22T12:44:49;101093.17;;;44.14;15.32
76730;BME280;65653;53.106;18.046;2023-06-22T12:47:15;101089.03;;;44.61;14.71
76730;BME280;65653;53.106;18.046;2023-06-22T12:49:41;101089.34;;;44.77;14.11